Time;durP1;ratioP1;P1;durP2;ratioP2;P2;SDS_P1;SDS_P2;PMS_P1;PMS_P2;Temp;Humidity;BMP_temperature;BMP_pressure;BME280_temperature;BME280_humidity;BME280_pressure;Samples;Min_cycle;Max_cycle;Signal;HPM_P1;HPM_P2
2021/06/26 00:00:31;;;;;;;18.10;14.32;;;19.00;78.80;;;;;;5054932;28;20029;-74
2021/06/26 00:02:57;;;;;;;18.52;13.95;;;18.90;78.70;;;;;;5055003;28;20037;-75
2021/06/26 00:05:23;;;;;;;17.25;15.35;;;18.90;78.80;;;;;;5056101;28;20033;-74
2021/06/26 00:07:48;;;;;;;15.98;14.00;;;18.80;78.80;;;;;;5054690;28;20025;-74
2021/06/26 00:10:14;;;;;;;15.55;13.88;;;18.80;79.10;;;;;;5056053;28;20025;-75
2021/06/26 00:12:40;;;;;;;17.02;14.15;;;18.80;79.30;;;;;;5054610;28;20025;-74
2021/06/26 00:15:09;;;;;;;15.63;13.90;;;18.70;79.30;;;;;;5054687;28;20037;-74
2021/06/26 00:17:35;;;;;;;17.17;14.35;;;18.70;79.30;;;;;;5075692;28;20158;-74
2021/06/26 00:20:01;;;;;;;19.00;13.60;;;18.60;79.30;;;;;;5075344;28;20086;-75
2021/06/26 00:22:27;;;;;;;20.70;15.13;;;18.60;79.30;;;;;;5094806;28;20472;-74
2021/06/26 00:24:52;;;;;;;20.88;15.57;;;18.60;79.30;;;;;;5094712;28;20541;-74
2021/06/26 00:27:18;;;;;;;17.40;15.02;;;18.60;79.20;;;;;;5077969;28;20024;-74
2021/06/26 00:29:43;;;;;;;19.48;13.95;;;18.60;79.20;;;;;;5077802;28;20024;-74
2021/06/26 00:32:09;;;;;;;19.25;15.93;;;18.60;79.30;;;;;;5094725;28;20117;-74
2021/06/26 00:34:35;;;;;;;18.10;14.98;;;18.50;79.20;;;;;;5077044;28;20035;-74
2021/06/26 00:37:00;;;;;;;22.15;15.40;;;18.50;79.20;;;;;;5095490;28;20538;-74
2021/06/26 00:39:26;;;;;;;17.55;15.30;;;18.50;79.50;;;;;;5094621;28;20028;-74
2021/06/26 00:41:51;;;;;;;19.17;15.75;;;18.50;79.60;;;;;;5095771;28;20111;-74
2021/06/26 00:44:17;;;;;;;19.13;15.52;;;18.40;79.60;;;;;;5095675;28;20036;-74
2021/06/26 00:46:43;;;;;;;19.08;15.65;;;18.40;79.60;;;;;;5095510;28;20055;-74
2021/06/26 00:49:08;;;;;;;19.27;15.48;;;18.40;79.60;;;;;;5094508;28;20031;-74
2021/06/26 00:51:34;;;;;;;21.42;17.75;;;18.40;79.60;;;;;;5078117;28;20033;-74
2021/06/26 00:54:01;;;;;;;20.83;16.98;;;18.40;79.70;;;;;;5075327;28;20055;-74
2021/06/26 00:56:27;;;;;;;22.55;16.65;;;18.30;79.90;;;;;;5074089;28;20028;-74
2021/06/26 00:58:55;;;;;;;22.20;16.23;;;18.20;80.10;;;;;;5075192;28;20478;-74
2021/06/26 01:01:21;;;;;;;21.95;17.35;;;18.20;80.30;;;;;;5075564;28;20012;-75
2021/06/26 01:03:47;;;;;;;22.80;17.02;;;18.20;80.40;;;;;;5095300;28;20058;-74
2021/06/26 01:06:14;;;;;;;23.80;18.27;;;18.10;80.50;;;;;;5093941;28;20056;-74
2021/06/26 01:08:40;;;;;;;25.23;18.38;;;18.10;80.70;;;;;;5077101;28;20024;-74
2021/06/26 01:11:06;;;;;;;22.73;18.48;;;18.10;80.90;;;;;;5095199;28;20028;-74
2021/06/26 01:13:32;;;;;;;21.80;16.92;;;18.00;80.80;;;;;;5095212;28;20031;-74
2021/06/26 01:15:58;;;;;;;25.35;17.17;;;18.00;80.90;;;;;;5092199;28;20439;-74
2021/06/26 01:18:24;;;;;;;20.25;17.13;;;18.00;81.00;;;;;;5091249;28;20036;-74
2021/06/26 01:20:49;;;;;;;26.38;18.13;;;18.00;81.00;;;;;;5074657;28;20029;-74
2021/06/26 01:23:15;;;;;;;22.80;17.50;;;18.00;80.90;;;;;;5074731;28;20082;-74
2021/06/26 01:25:41;;;;;;;22.20;17.13;;;18.00;81.00;;;;;;5056657;28;20119;-74
2021/06/26 01:28:07;;;;;;;21.05;16.45;;;18.00;81.10;;;;;;5074604;28;20029;-74
2021/06/26 01:30:35;;;;;;;24.25;17.15;;;18.00;81.10;;;;;;5074656;28;20419;-74
2021/06/26 01:33:03;;;;;;;19.88;17.13;;;18.00;81.10;;;;;;5076100;28;20482;-74
2021/06/26 01:35:29;;;;;;;24.52;18.15;;;18.00;81.10;;;;;;5073169;28;20090;-74
2021/06/26 01:37:56;;;;;;;22.85;18.02;;;18.00;81.20;;;;;;5073341;28;20037;-74
2021/06/26 01:40:24;;;;;;;21.85;17.90;;;17.90;81.20;;;;;;5073262;28;20044;-74
2021/06/26 01:42:52;;;;;;;21.63;17.35;;;17.80;81.20;;;;;;5074178;28;20036;-74
2021/06/26 01:45:18;;;;;;;21.33;17.63;;;17.80;81.40;;;;;;5073054;28;20029;-74
2021/06/26 01:47:49;;;;;;;23.48;18.63;;;17.80;81.50;;;;;;5073191;28;20438;-74
2021/06/26 01:50:16;;;;;;;23.77;19.13;;;17.70;81.70;;;;;;5056726;28;20036;-74
2021/06/26 01:52:44;;;;;;;22.30;16.88;;;17.70;81.80;;;;;;5056222;28;20063;-74
2021/06/26 01:55:10;;;;;;;22.33;17.45;;;17.70;81.90;;;;;;5056219;28;20123;-74
2021/06/26 01:57:36;;;;;;;24.83;19.35;;;17.60;82.00;;;;;;5073915;28;20640;-74
2021/06/26 02:00:05;;;;;;;23.85;18.98;;;17.60;82.30;;;;;;5072798;28;20409;-74
2021/06/26 02:02:30;;;;;;;22.30;16.90;;;17.60;82.50;;;;;;5080215;28;20035;-74
2021/06/26 02:04:56;;;;;;;26.77;18.52;;;17.50;82.60;;;;;;5075908;28;20032;-74
2021/06/26 02:07:21;;;;;;;24.10;18.20;;;17.50;82.60;;;;;;5094091;28;20073;-74
2021/06/26 02:09:47;;;;;;;21.75;17.75;;;17.50;82.60;;;;;;5075859;28;20028;-74
2021/06/26 02:12:13;;;;;;;28.35;20.35;;;17.50;82.70;;;;;;5093656;28;20032;-74
2021/06/26 02:14:38;;;;;;;23.13;18.75;;;17.40;82.60;;;;;;5092770;28;20038;-74
2021/06/26 02:17:04;;;;;;;28.58;20.63;;;17.40;82.70;;;;;;5092700;28;20062;-74
2021/06/26 02:19:29;;;;;;;24.85;18.58;;;17.40;82.90;;;;;;5067157;28;20099;-74
2021/06/26 02:21:55;;;;;;;24.08;19.42;;;17.40;83.00;;;;;;5073501;28;20041;-74
2021/06/26 02:24:20;;;;;;;25.08;19.58;;;17.30;83.10;;;;;;5073432;28;20111;-74
2021/06/26 02:26:46;;;;;;;24.52;17.90;;;17.30;83.10;;;;;;5072323;28;20036;-75
2021/06/26 02:29:12;;;;;;;22.45;17.75;;;17.30;83.20;;;;;;5055592;28;20073;-74
2021/06/26 02:31:37;;;;;;;25.52;18.55;;;17.20;83.10;;;;;;5073275;28;20048;-74
2021/06/26 02:34:03;;;;;;;25.90;19.02;;;17.30;83.20;;;;;;5072245;28;20426;-74
2021/06/26 02:36:29;;;;;;;26.30;19.38;;;17.20;83.30;;;;;;5085217;28;20032;-75
2021/06/26 02:38:54;;;;;;;23.10;17.88;;;17.20;83.30;;;;;;5075896;28;20033;-74
2021/06/26 02:41:22;;;;;;;24.23;19.52;;;17.20;83.40;;;;;;5071954;28;20039;-74
2021/06/26 02:43:49;;;;;;;29.65;20.13;;;17.20;83.50;;;;;;5073278;28;20034;-74
2021/06/26 02:46:15;;;;;;;23.33;19.15;;;17.10;83.70;;;;;;5071656;28;20052;-74
2021/06/26 02:48:40;;;;;;;24.73;19.63;;;17.10;83.80;;;;;;5071939;28;20017;-74
2021/06/26 02:51:06;;;;;;;24.48;19.48;;;17.00;83.90;;;;;;5087736;28;20028;-74
2021/06/26 02:53:32;;;;;;;24.50;20.17;;;17.00;84.10;;;;;;5093222;28;20027;-74
2021/06/26 02:55:57;;;;;;;31.08;21.25;;;17.00;84.30;;;;;;5091955;28;20112;-74
2021/06/26 02:58:24;;;;;;;25.77;20.17;;;16.90;84.30;;;;;;5091878;28;20473;-74
2021/06/26 03:00:49;;;;;;;25.70;19.40;;;16.90;84.50;;;;;;5091691;28;20397;-74
2021/06/26 03:03:15;;;;;;;24.95;19.55;;;16.90;84.50;;;;;;5091849;28;20032;-74
2021/06/26 03:05:41;;;;;;;28.27;20.30;;;16.90;84.70;;;;;;5093037;28;20052;-74
2021/06/26 03:08:08;;;;;;;32.97;20.60;;;16.90;84.80;;;;;;5091116;28;20036;-74
2021/06/26 03:10:34;;;;;;;26.80;20.58;;;16.90;84.90;;;;;;5093134;28;20108;-74
2021/06/26 03:12:59;;;;;;;30.58;20.92;;;16.80;84.80;;;;;;5091776;28;20107;-74
2021/06/26 03:15:25;;;;;;;28.08;20.40;;;16.80;84.90;;;;;;5091724;28;20028;-74
2021/06/26 03:17:50;;;;;;;30.38;20.23;;;16.80;85.00;;;;;;5091840;28;20032;-74
2021/06/26 03:20:16;;;;;;;30.85;20.35;;;16.80;85.10;;;;;;5085435;28;20493;-74
2021/06/26 03:22:42;;;;;;;25.25;20.05;;;16.80;85.20;;;;;;5073982;28;20025;-74
2021/06/26 03:25:09;;;;;;;25.25;18.98;;;16.80;85.20;;;;;;5087381;28;20106;-74
2021/06/26 03:27:37;;;;;;;25.90;19.77;;;16.80;85.20;;;;;;5093478;28;20043;-75
2021/06/26 03:30:04;;;;;;;26.27;20.55;;;16.90;85.30;;;;;;5097048;28;20020;-74
2021/06/26 03:32:29;;;;;;;26.08;20.13;;;16.80;85.20;;;;;;5096967;28;20107;-74
2021/06/26 03:34:55;;;;;;;25.00;19.45;;;16.90;85.10;;;;;;5095694;28;20127;-75
2021/06/26 03:37:20;;;;;;;25.77;20.02;;;16.90;85.20;;;;;;5095886;28;20102;-74
2021/06/26 03:39:46;;;;;;;27.98;19.90;;;16.90;85.20;;;;;;5095913;28;20030;-74
2021/06/26 03:42:12;;;;;;;27.45;20.65;;;16.90;85.20;;;;;;5095133;28;20032;-74
2021/06/26 03:44:37;;;;;;;30.23;21.45;;;16.90;85.20;;;;;;5096648;28;20105;-74
2021/06/26 03:47:03;;;;;;;30.55;19.67;;;17.00;85.30;;;;;;5095373;28;20412;-74
2021/06/26 03:49:32;;;;;;;30.65;22.50;;;17.00;85.30;;;;;;5096674;28;20020;-74
2021/06/26 03:51:58;;;;;;;27.10;19.88;;;17.00;85.40;;;;;;5096684;28;20044;-74
2021/06/26 03:54:23;;;;;;;29.08;20.40;;;17.00;85.30;;;;;;5078507;28;20133;-74
2021/06/26 03:56:49;;;;;;;28.40;20.58;;;17.00;85.20;;;;;;5086189;28;20035;-74
2021/06/26 03:59:15;;;;;;;26.02;19.23;;;17.10;85.20;;;;;;5075004;28;20466;-74
2021/06/26 04:01:40;;;;;;;30.13;20.17;;;17.10;85.10;;;;;;5076213;28;20081;-74
2021/06/26 04:04:06;;;;;;;26.40;19.88;;;17.10;84.90;;;;;;5074639;28;20082;-75
2021/06/26 04:06:31;;;;;;;31.00;20.92;;;17.20;85.00;;;;;;5074744;28;20039;-75
2021/06/26 04:08:57;;;;;;;31.13;21.75;;;17.20;84.90;;;;;;5075920;28;20027;-74
2021/06/26 04:11:23;;;;;;;34.92;23.13;;;17.20;84.80;;;;;;5074402;28;20101;-74
2021/06/26 04:13:48;;;;;;;31.80;23.30;;;17.20;84.70;;;;;;5087993;28;20064;-74
2021/06/26 04:16:14;;;;;;;32.40;21.45;;;17.20;84.70;;;;;;5078046;28;20114;-74
2021/06/26 04:18:39;;;;;;;29.63;21.52;;;17.20;84.90;;;;;;5078156;28;20366;-74
2021/06/26 04:21:05;;;;;;;28.00;19.55;;;17.30;85.00;;;;;;5080598;28;20082;-74
2021/06/26 04:23:30;;;;;;;29.33;22.10;;;17.20;84.90;;;;;;5075853;28;20029;-74
2021/06/26 04:25:56;;;;;;;28.02;20.10;;;17.30;85.00;;;;;;5041224;28;20397;-74
2021/06/26 04:28:22;;;;;;;28.73;19.45;;;17.30;84.90;;;;;;5074470;28;20028;-74
2021/06/26 04:30:47;;;;;;;28.65;19.77;;;17.30;84.90;;;;;;5092761;28;20024;-74
2021/06/26 04:33:13;;;;;;;31.35;22.55;;;17.20;84.80;;;;;;5095935;28;20420;-74
2021/06/26 04:35:39;;;;;;;28.73;21.38;;;17.20;84.80;;;;;;5095855;28;20081;-74
2021/06/26 04:38:04;;;;;;;28.75;21.65;;;17.20;84.90;;;;;;5077833;28;20163;-74
2021/06/26 04:40:30;;;;;;;30.92;21.95;;;17.20;85.00;;;;;;5095778;28;20028;-74
2021/06/26 04:42:56;;;;;;;33.00;21.70;;;17.20;85.00;;;;;;5092997;28;20039;-74
2021/06/26 04:45:22;;;;;;;33.53;22.60;;;17.20;85.00;;;;;;5075328;28;20398;-74
2021/06/26 04:47:48;;;;;;;31.10;22.65;;;17.20;85.00;;;;;;5057391;28;20527;-74
2021/06/26 04:50:14;;;;;;;28.20;22.30;;;17.10;85.00;;;;;;5074065;28;20059;-74
2021/06/26 04:52:41;;;;;;;30.40;23.25;;;17.10;85.20;;;;;;5075296;28;20025;-75
2021/06/26 04:55:08;;;;;;;30.63;22.65;;;17.10;85.40;;;;;;5074094;28;20024;-74
2021/06/26 04:57:33;;;;;;;38.47;27.15;;;17.10;85.40;;;;;;5075206;28;20048;-74
2021/06/26 04:59:59;;;;;;;38.10;25.45;;;17.10;85.40;;;;;;5076260;28;20064;-74
2021/06/26 05:02:25;;;;;;;35.95;25.67;;;17.10;86.00;;;;;;5073931;28;20071;-74
2021/06/26 05:04:50;;;;;;;35.90;25.58;;;17.10;85.40;;;;;;5073841;28;20029;-74
2021/06/26 05:07:16;;;;;;;31.15;24.90;;;17.10;85.40;;;;;;5075008;28;20025;-74
2021/06/26 05:09:42;;;;;;;34.50;24.67;;;17.10;85.50;;;;;;5074995;28;20053;-74
2021/06/26 05:12:08;;;;;;;38.53;24.17;;;17.10;85.50;;;;;;5075185;28;20369;-74
2021/06/26 05:14:33;;;;;;;35.67;24.92;;;17.10;85.70;;;;;;5073679;28;20097;-74
2021/06/26 05:16:59;;;;;;;34.72;26.15;;;17.10;85.60;;;;;;5075958;28;20040;-74
2021/06/26 05:19:24;;;;;;;36.13;26.33;;;17.20;85.40;;;;;;5073577;28;20138;-74
2021/06/26 05:21:50;;;;;;;36.05;25.50;;;17.20;85.30;;;;;;5074733;28;20381;-74
2021/06/26 05:24:16;;;;;;;36.80;25.55;;;17.30;85.30;;;;;;5073457;28;20037;-75
2021/06/26 05:26:42;;;;;;;33.42;24.35;;;17.30;85.20;;;;;;5073399;28;20028;-75
2021/06/26 05:29:08;;;;;;;33.85;25.35;;;17.40;85.20;;;;;;5073380;28;20017;-74
2021/06/26 05:31:33;;;;;;;36.80;23.52;;;17.40;85.10;;;;;;5073397;28;20108;-74
2021/06/26 05:33:59;;;;;;;36.17;26.80;;;17.50;85.00;;;;;;5072557;28;20040;-74
2021/06/26 05:36:25;;;;;;;32.35;23.77;;;17.60;84.70;;;;;;5072928;28;20047;-74
2021/06/26 05:38:51;;;;;;;34.08;24.75;;;17.70;84.40;;;;;;5058539;28;20541;-74
2021/06/26 05:41:17;;;;;;;36.72;24.60;;;17.80;84.20;;;;;;5081764;28;20115;-74
2021/06/26 05:43:42;;;;;;;30.73;23.23;;;17.80;84.10;;;;;;5068020;28;20021;-74
2021/06/26 05:46:08;;;;;;;34.00;23.52;;;17.90;83.80;;;;;;5076857;28;20083;-74
2021/06/26 05:48:34;;;;;;;33.40;23.17;;;18.10;83.70;;;;;;5052736;28;20433;-74
2021/06/26 05:50:59;;;;;;;33.30;23.10;;;18.20;83.40;;;;;;5067320;28;20540;-74
2021/06/26 05:53:25;;;;;;;29.15;21.35;;;18.30;83.10;;;;;;5074960;28;20033;-74
2021/06/26 05:55:57;;;;;;;34.22;22.88;;;18.40;82.70;;;;;;5080444;28;20481;-74
2021/06/26 05:58:24;;;;;;;29.92;21.67;;;18.50;82.70;;;;;;5072642;28;20027;-74
2021/06/26 06:00:50;;;;;;;32.97;21.95;;;18.60;82.50;;;;;;5068145;28;20504;-74
2021/06/26 06:03:16;;;;;;;32.55;22.73;;;18.70;82.80;;;;;;5085368;28;20042;-74
2021/06/26 06:05:41;;;;;;;29.00;22.67;;;18.70;81.60;;;;;;5080284;28;20037;-75
2021/06/26 06:08:07;;;;;;;31.83;21.75;;;18.80;81.20;;;;;;5060184;28;20111;-74
2021/06/26 06:10:33;;;;;;;34.25;24.05;;;18.80;81.00;;;;;;5068662;28;20032;-74
2021/06/26 06:12:58;;;;;;;32.88;22.30;;;18.90;80.80;;;;;;5066646;28;20044;-74
2021/06/26 06:15:24;;;;;;;28.75;21.85;;;19.00;80.70;;;;;;5068113;28;20032;-74
2021/06/26 06:17:49;;;;;;;32.92;23.20;;;19.10;80.50;;;;;;5051168;28;20143;-74
2021/06/26 06:20:15;;;;;;;31.13;21.52;;;19.20;80.20;;;;;;5067516;28;20115;-74
2021/06/26 06:22:41;;;;;;;32.95;23.50;;;19.30;79.70;;;;;;5068643;28;20020;-74
2021/06/26 06:25:12;;;;;;;36.33;24.35;;;19.40;79.20;;;;;;5068707;28;20043;-74
2021/06/26 06:27:41;;;;;;;33.88;22.63;;;19.50;78.80;;;;;;5067387;28;20012;-74
2021/06/26 06:30:08;;;;;;;30.95;23.33;;;19.50;78.50;;;;;;5068191;28;20374;-74
2021/06/26 06:32:34;;;;;;;31.63;23.60;;;19.60;77.80;;;;;;5066488;28;20044;-74
2021/06/26 06:35:00;;;;;;;29.95;22.45;;;19.70;77.50;;;;;;5068093;28;20024;-74
2021/06/26 06:37:25;;;;;;;31.73;23.02;;;19.80;77.30;;;;;;5065202;28;20091;-74
2021/06/26 06:39:51;;;;;;;34.05;23.50;;;19.90;76.90;;;;;;5068582;28;20033;-74
2021/06/26 06:42:17;;;;;;;33.08;22.85;;;20.00;76.20;;;;;;5068543;28;20040;-73
2021/06/26 06:44:42;;;;;;;30.48;22.80;;;20.10;75.70;;;;;;5069887;28;20028;-73
2021/06/26 06:47:08;;;;;;;26.80;21.17;;;20.10;75.30;;;;;;5078724;28;20068;-74
2021/06/26 06:49:33;;;;;;;35.00;22.25;;;20.20;75.10;;;;;;5072937;28;20035;-74
2021/06/26 06:52:02;;;;;;;28.45;21.67;;;20.40;74.90;;;;;;5070702;28;20481;-73
2021/06/26 06:54:28;;;;;;;;;;;20.50;75.10;;;;;;5070410;28;20030;-73
2021/06/26 06:56:53;;;;;;;29.70;22.17;;;20.60;73.60;;;;;;5051051;28;19912;-74
2021/06/26 06:59:19;;;;;;;27.27;20.27;;;20.70;73.90;;;;;;5068353;28;20066;-73
2021/06/26 07:01:45;;;;;;;27.13;20.63;;;20.80;73.50;;;;;;5072885;28;20039;-74
2021/06/26 07:04:10;;;;;;;34.80;24.25;;;21.00;73.30;;;;;;5072826;28;20028;-74
2021/06/26 07:06:36;;;;;;;32.30;23.83;;;21.10;71.90;;;;;;5071670;28;20426;-73
2021/06/26 07:09:02;;;;;;;26.38;21.50;;;21.20;71.00;;;;;;5082602;28;20028;-74
2021/06/26 07:11:28;;;;;;;26.15;20.63;;;21.20;70.70;;;;;;5070447;28;20037;-74
2021/06/26 07:13:53;;;;;;;24.58;19.73;;;21.30;70.20;;;;;;5052802;28;20097;-74
2021/06/26 07:16:19;;;;;;;30.70;21.33;;;21.40;70.40;;;;;;5052569;28;20397;-73
2021/06/26 07:18:45;;;;;;;26.83;20.75;;;21.60;69.50;;;;;;5054308;28;20033;-73
2021/06/26 07:21:10;;;;;;;29.83;21.80;;;21.70;68.70;;;;;;5067558;28;20039;-74
2021/06/26 07:23:36;;;;;;;26.17;20.55;;;21.90;67.70;;;;;;5081781;28;20031;-73
2021/06/26 07:26:02;;;;;;;28.75;22.20;;;22.00;67.70;;;;;;5076313;28;20083;-74
2021/06/26 07:28:27;;;;;;;33.15;21.67;;;22.20;67.30;;;;;;5057256;28;20087;-82
2021/06/26 07:30:53;;;;;;;32.03;20.15;;;22.40;66.40;;;;;;5068567;28;20029;-82
2021/06/26 07:33:18;;;;;;;27.35;21.67;;;22.50;66.00;;;;;;5068664;28;20482;-82
2021/06/26 07:35:44;;;;;;;27.58;20.70;;;22.50;65.70;;;;;;5072052;28;20481;-82
2021/06/26 07:38:10;;;;;;;28.85;21.95;;;22.50;65.60;;;;;;5073294;28;20033;-82
2021/06/26 07:40:35;;;;;;;26.83;20.33;;;22.40;65.50;;;;;;5071978;28;20037;-81
2021/06/26 07:43:01;;;;;;;26.15;20.77;;;22.40;65.80;;;;;;5071592;28;20040;-81
2021/06/26 07:45:27;;;;;;;30.55;21.73;;;22.50;65.50;;;;;;5071701;28;20039;-82
2021/06/26 07:47:52;;;;;;;27.40;21.45;;;22.60;64.80;;;;;;5072861;28;20037;-81
2021/06/26 07:50:18;;;;;;;24.50;19.52;;;22.60;65.00;;;;;;5080907;28;20031;-82
2021/06/26 07:52:43;;;;;;;26.50;20.70;;;22.60;65.00;;;;;;5075162;28;20028;-82
2021/06/26 07:55:09;;;;;;;23.98;19.23;;;22.80;64.70;;;;;;5092006;28;20408;-81
2021/06/26 07:57:36;;;;;;;29.77;20.55;;;22.90;64.20;;;;;;5091880;28;20036;-81
2021/06/26 08:00:05;;;;;;;27.05;19.33;;;23.10;63.20;;;;;;5091967;28;20020;-81
2021/06/26 08:02:30;;;;;;;25.63;19.90;;;23.20;62.70;;;;;;5091941;28;20028;-81
2021/06/26 08:04:56;;;;;;;23.45;18.80;;;23.40;62.00;;;;;;5081217;28;20473;-81
2021/06/26 08:07:22;;;;;;;26.90;19.83;;;23.50;62.10;;;;;;5073179;28;20029;-81
2021/06/26 08:09:48;;;;;;;25.08;19.60;;;23.60;61.20;;;;;;5073307;28;20060;-82
2021/06/26 08:12:16;;;;;;;22.42;18.10;;;23.70;61.10;;;;;;5074042;28;20025;-85
2021/06/26 08:14:42;;;;;;;24.67;19.43;;;23.70;60.70;;;;;;5075963;28;20028;-84
2021/06/26 08:17:10;;;;;;;24.42;19.05;;;23.80;60.70;;;;;;5074062;28;20516;-85
2021/06/26 08:19:35;;;;;;;25.23;20.10;;;23.90;60.40;;;;;;5091314;28;20070;-85
2021/06/26 08:22:01;;;;;;;27.65;20.13;;;24.00;59.90;;;;;;5094693;28;20488;-83
2021/06/26 08:24:27;;;;;;;27.10;19.80;;;24.10;59.70;;;;;;5078369;28;20028;-82
2021/06/26 08:26:52;;;;;;;24.40;18.25;;;24.10;59.30;;;;;;5095005;28;20055;-83
2021/06/26 08:29:18;;;;;;;22.88;18.60;;;24.20;59.50;;;;;;5072639;28;20389;-83
2021/06/26 08:31:43;;;;;;;28.48;19.25;;;24.30;59.10;;;;;;5076039;28;20032;-84
2021/06/26 08:34:09;;;;;;;24.23;18.63;;;24.40;58.30;;;;;;5076128;28;20047;-83
2021/06/26 08:36:35;;;;;;;23.10;18.70;;;24.50;58.50;;;;;;5074980;28;20401;-83
2021/06/26 08:39:01;;;;;;;23.05;19.10;;;24.60;57.70;;;;;;5074634;28;20032;-83
2021/06/26 08:41:29;;;;;;;22.70;19.02;;;24.60;58.40;;;;;;5074721;28;20035;-84
2021/06/26 08:43:55;;;;;;;23.00;17.17;;;24.80;57.80;;;;;;5075746;28;20050;-83
2021/06/26 08:46:21;;;;;;;20.15;16.13;;;24.80;57.10;;;;;;5074234;28;20055;-81
2021/06/26 08:48:47;;;;;;;22.60;17.02;;;24.90;56.80;;;;;;5057648;28;20476;-81
2021/06/26 08:51:13;;;;;;;19.77;14.82;;;25.00;56.70;;;;;;5075710;28;20040;-79
2021/06/26 08:53:38;;;;;;;17.20;14.50;;;25.20;56.30;;;;;;5057296;28;20124;-79
2021/06/26 08:56:04;;;;;;;19.98;15.45;;;25.20;56.20;;;;;;5075576;28;20036;-79
2021/06/26 08:58:30;;;;;;;19.00;14.70;;;25.20;55.10;;;;;;5079178;28;20407;-78
2021/06/26 09:00:55;;;;;;;16.33;13.32;;;25.20;55.40;;;;;;5094429;28;20028;-79
2021/06/26 09:03:23;;;;;;;20.33;14.77;;;25.20;55.80;;;;;;5073944;28;20111;-79
2021/06/26 09:05:49;;;;;;;20.33;15.27;;;25.30;55.70;;;;;;5074089;28;20481;-78
2021/06/26 09:08:17;;;;;;;20.20;15.88;;;25.40;55.30;;;;;;5074101;28;20036;-79
2021/06/26 09:10:45;;;;;;;15.45;11.52;;;25.40;54.40;;;;;;5074006;28;20150;-79
2021/06/26 09:13:16;;;;;;;21.17;12.63;;;25.50;54.20;;;;;;5074023;28;20115;-79
2021/06/26 09:15:43;;;;;;;18.63;12.77;;;25.60;53.70;;;;;;5075220;28;20031;-75
2021/06/26 09:18:20;;;;;;;15.13;12.00;;;25.60;52.70;;;;;;5074930;28;20496;-74
2021/06/26 09:20:51;;;;;;;16.55;11.77;;;25.70;53.10;;;;;;5073612;28;20029;-75
2021/06/26 09:23:30;;;;;;;16.88;10.15;;;25.60;50.60;;;;;;5073097;28;20484;-78
2021/06/26 09:26:06;;;;;;;14.90;10.80;;;25.50;51.80;;;;;;5073624;28;20507;-79
2021/06/26 09:28:32;;;;;;;13.57;10.52;;;25.30;52.60;;;;;;5075585;28;20021;-74
2021/06/26 09:30:58;;;;;;;11.07;8.70;;;25.10;53.50;;;;;;5083647;28;20479;-74
2021/06/26 09:33:26;;;;;;;14.35;11.27;;;25.10;53.60;;;;;;5094727;28;20020;-74
2021/06/26 09:36:10;;;;;;;15.15;10.30;;;25.00;53.90;;;;;;5084365;28;20027;-75
2021/06/26 09:39:05;;;;;;;12.65;9.65;;;25.10;53.40;;;;;;5076481;28;20078;-75
2021/06/26 09:41:31;;;;;;;13.55;10.95;;;25.30;53.50;;;;;;5064912;28;20448;-74
2021/06/26 09:44:07;;;;;;;18.00;11.20;;;25.50;53.20;;;;;;5067908;28;20064;-75
2021/06/26 09:46:46;;;;;;;15.00;10.57;;;25.80;52.90;;;;;;5054191;28;20056;-75
2021/06/26 09:49:12;;;;;;;13.73;10.05;;;26.10;52.00;;;;;;5061716;28;20024;-74
2021/06/26 09:51:38;;;;;;;14.65;10.75;;;26.30;51.70;;;;;;5060708;28;20109;-75
2021/06/26 09:54:09;;;;;;;15.77;10.05;;;26.50;51.00;;;;;;5054754;28;20064;-75
2021/06/26 09:56:56;;;;;;;12.88;9.90;;;26.60;50.80;;;;;;5054719;28;20083;-75
2021/06/26 09:59:33;;;;;;;16.38;9.30;;;26.70;49.70;;;;;;5060077;28;20036;-75
2021/06/26 10:01:59;;;;;;;15.80;10.05;;;26.80;48.80;;;;;;5060670;28;20427;-75
2021/06/26 10:04:25;;;;;;;10.98;9.48;;;26.80;49.30;;;;;;5052664;28;20667;-75
2021/06/26 10:06:52;;;;;;;15.43;10.15;;;26.80;49.80;;;;;;5053925;28;20025;-75
2021/06/26 10:09:18;;;;;;;12.23;9.48;;;26.80;49.80;;;;;;5068799;28;20040;-75
2021/06/26 10:11:44;;;;;;;11.63;9.75;;;26.90;49.50;;;;;;5073731;28;20029;-75
2021/06/26 10:14:11;;;;;;;14.45;9.35;;;27.00;49.20;;;;;;5073477;28;20103;-76
2021/06/26 10:16:39;;;;;;;9.23;8.25;;;27.10;49.00;;;;;;5071644;28;20060;-74
2021/06/26 10:19:09;;;;;;;10.25;8.13;;;27.40;49.20;;;;;;5072274;28;20033;-74
2021/06/26 10:21:36;;;;;;;12.65;8.88;;;27.50;48.50;;;;;;5063173;28;20044;-74
2021/06/26 10:24:10;;;;;;;14.27;8.48;;;27.50;47.40;;;;;;5053526;28;20019;-74
2021/06/26 10:26:39;;;;;;;12.70;8.30;;;27.60;46.70;;;;;;5068464;28;20029;-75
2021/06/26 10:29:05;;;;;;;9.68;8.23;;;27.60;46.80;;;;;;5076431;28;20099;-76
2021/06/26 10:31:39;;;;;;;10.10;7.97;;;27.50;46.80;;;;;;5078891;28;20377;-75
2021/06/26 10:34:21;;;;;;;8.77;7.88;;;27.50;46.70;;;;;;5073212;28;20016;-74
2021/06/26 10:36:54;;;;;;;11.27;8.00;;;27.50;46.90;;;;;;5055920;28;20500;-75
2021/06/26 10:39:30;;;;;;;9.05;7.72;;;27.40;47.10;;;;;;5052373;28;20143;-75
2021/06/26 10:42:09;;;;;;;10.63;8.35;;;27.30;46.90;;;;;;5048971;28;20025;-75
2021/06/26 10:44:41;;;;;;;8.80;7.70;;;27.10;47.40;;;;;;5053247;28;20020;-75
2021/06/26 10:47:08;;;;;;;8.43;7.15;;;27.10;48.60;;;;;;5053122;28;20045;-75
2021/06/26 10:49:34;;;;;;;10.63;7.63;;;27.00;48.90;;;;;;5052018;28;20102;-76
2021/06/26 10:52:14;;;;;;;8.07;7.22;;;26.90;48.70;;;;;;5053155;28;20060;-75
2021/06/26 10:54:54;;;;;;;11.15;7.70;;;26.70;48.90;;;;;;5053149;28;20104;-74
2021/06/26 10:57:20;;;;;;;10.07;7.57;;;26.70;49.00;;;;;;5083005;28;20028;-75
2021/06/26 11:00:00;;;;;;;9.95;6.97;;;26.50;48.20;;;;;;5082019;28;20107;-75
2021/06/26 11:02:46;;;;;;;10.02;7.22;;;26.50;48.70;;;;;;5078077;28;20028;-74
2021/06/26 11:05:12;;;;;;;9.45;7.40;;;26.40;48.90;;;;;;5061924;28;20045;-75
2021/06/26 11:07:39;;;;;;;12.27;7.55;;;26.30;49.20;;;;;;5087505;28;20051;-78
2021/06/26 11:10:13;;;;;;;10.00;8.05;;;26.20;49.50;;;;;;5080346;28;20433;-78
2021/06/26 11:12:45;;;;;;;9.55;8.25;;;26.30;49.60;;;;;;5088451;28;20035;-78
2021/06/26 11:15:12;;;;;;;11.40;8.70;;;26.30;49.10;;;;;;5077028;28;20055;-78
2021/06/26 11:17:41;;;;;;;12.73;7.43;;;26.50;48.40;;;;;;5081089;28;20416;-77
2021/06/26 11:20:08;;;;;;;11.10;7.43;;;26.80;48.00;;;;;;5079000;28;20039;-79
2021/06/26 11:22:34;;;;;;;9.52;7.80;;;27.10;47.30;;;;;;5093170;28;20112;-78
2021/06/26 11:25:01;;;;;;;13.90;8.02;;;27.50;46.20;;;;;;5093205;28;20103;-78
2021/06/26 11:27:27;;;;;;;9.50;7.65;;;27.70;46.50;;;;;;5092320;28;20017;-78
2021/06/26 11:30:01;;;;;;;8.05;7.25;;;28.00;45.60;;;;;;5092343;28;20031;-78
2021/06/26 11:32:28;;;;;;;9.18;7.53;;;28.20;45.40;;;;;;5092350;28;20024;-78
2021/06/26 11:34:59;;;;;;;9.40;7.97;;;28.10;45.20;;;;;;5091559;28;20036;-78
2021/06/26 11:37:47;;;;;;;7.50;6.80;;;27.90;44.70;;;;;;5093161;28;20034;-78
2021/06/26 11:40:24;;;;;;;10.05;7.78;;;27.60;45.60;;;;;;5091833;28;20027;-78
2021/06/26 11:42:51;;;;;;;9.57;7.07;;;27.40;46.60;;;;;;5092991;28;20064;-78
2021/06/26 11:45:28;;;;;;;9.15;7.30;;;27.40;47.00;;;;;;5094018;28;20031;-78
2021/06/26 11:48:07;;;;;;;10.98;6.57;;;27.50;45.70;;;;;;5097097;28;20094;-78
2021/06/26 11:50:35;;;;;;;9.73;6.60;;;27.40;45.00;;;;;;5083897;28;20127;-78
2021/06/26 11:53:11;;;;;;;9.10;6.45;;;27.10;45.40;;;;;;5076618;28;20017;-78
2021/06/26 11:55:49;;;;;;;7.03;5.97;;;26.90;46.60;;;;;;5076547;28;20113;-78
2021/06/26 11:58:18;;;;;;;8.15;6.72;;;26.90;47.90;;;;;;5072502;28;20032;-78
2021/06/26 12:00:44;;;;;;;8.93;6.53;;;26.90;46.90;;;;;;5071443;28;20033;-78
2021/06/26 12:03:19;;;;;;;7.95;7.10;;;26.80;46.90;;;;;;5064181;28;20036;-78
2021/06/26 12:05:46;;;;;;;8.85;7.20;;;26.70;46.50;;;;;;5076421;28;20032;-78
2021/06/26 12:08:12;;;;;;;8.82;6.05;;;26.80;46.80;;;;;;5056721;28;20056;-78
2021/06/26 12:10:38;;;;;;;8.75;6.80;;;27.00;45.80;;;;;;5072735;28;20024;-79
2021/06/26 12:13:03;;;;;;;9.63;7.10;;;27.00;45.20;;;;;;5056000;28;20351;-78
2021/06/26 12:15:29;;;;;;;11.68;6.82;;;27.00;46.20;;;;;;5056590;28;20636;-78
2021/06/26 12:18:05;;;;;;;14.18;6.85;;;27.10;45.40;;;;;;5055161;28;20039;-78
2021/06/26 12:20:35;;;;;;;7.53;6.72;;;27.00;45.70;;;;;;5056165;28;20029;-77
2021/06/26 12:23:05;;;;;;;8.43;6.57;;;26.90;46.10;;;;;;5074884;28;21478;-82
2021/06/26 12:25:40;;;;;;;12.52;6.82;;;26.90;46.70;;;;;;5076170;28;20020;-83
2021/06/26 12:28:08;;;;;;;8.77;6.68;;;27.20;46.60;;;;;;5075101;28;20021;-82
2021/06/26 12:30:38;;;;;;;13.68;6.80;;;27.50;44.70;;;;;;5071077;28;20024;-83